createdAt,value
2023-04-12T00:00:19.345Z,14
2023-04-12T00:05:16.012Z,11
2023-04-12T00:10:16.231Z,9
2023-04-12T00:15:16.111Z,10
2023-04-12T00:20:20.016Z,13
2023-04-12T00:25:16.010Z,10
2023-04-12T00:30:20.080Z,9
2023-04-12T00:35:16.094Z,14
2023-04-12T00:40:18.971Z,12
2023-04-12T00:45:20.130Z,15
2023-04-12T00:50:16.008Z,12
2023-04-12T00:55:16.231Z,12
2023-04-12T01:00:16.076Z,9
2023-04-12T01:05:16.419Z,15
2023-04-12T01:10:19.033Z,16
2023-04-12T01:15:17.151Z,15
2023-04-12T01:20:19.296Z,13
2023-04-12T01:25:19.002Z,15
2023-04-12T01:30:16.153Z,14
2023-04-12T01:35:19.019Z,12
2023-04-12T01:40:16.143Z,18
2023-04-12T01:45:16.016Z,12
2023-04-12T01:50:19.004Z,17
2023-04-12T01:55:16.190Z,14
2023-04-12T02:00:16.056Z,11
2023-04-12T02:05:19.144Z,11
2023-04-12T02:10:19.076Z,11
2023-04-12T02:15:19.175Z,12
2023-04-12T02:20:16.055Z,10
2023-04-12T02:25:19.183Z,9
2023-04-12T02:30:16.089Z,11
2023-04-12T02:35:19.057Z,10
2023-04-12T02:40:20.635Z,18
2023-04-12T02:45:16.057Z,13
2023-04-12T02:50:15.975Z,14
2023-04-12T02:55:16.063Z,16
2023-04-12T03:00:19.090Z,13
2023-04-12T03:05:16.193Z,13
2023-04-12T03:10:18.984Z,13
2023-04-12T03:15:16.027Z,10
2023-04-12T03:20:19.057Z,12
2023-04-12T03:25:16.037Z,13
2023-04-12T03:30:16.080Z,10
2023-04-12T03:35:16.215Z,13
2023-04-12T03:40:19.046Z,13
2023-04-12T03:45:16.193Z,14
2023-04-12T03:50:19.036Z,11
2023-04-12T03:55:16.213Z,13
2023-04-12T04:00:20.370Z,8
2023-04-12T04:05:17.677Z,10
2023-04-12T04:10:20.395Z,8
2023-04-12T04:15:17.500Z,6
2023-04-12T04:20:20.341Z,9
2023-04-12T04:25:17.457Z,8
2023-04-12T04:30:17.439Z,8
2023-04-12T04:35:17.438Z,5
2023-04-12T04:40:20.339Z,7
2023-04-12T04:45:20.387Z,3
2023-04-12T04:50:20.340Z,4
2023-04-12T04:55:20.377Z,6
2023-04-12T05:00:21.360Z,7
2023-04-12T05:05:20.384Z,7
2023-04-12T05:10:17.321Z,9
2023-04-12T05:15:20.518Z,12
2023-04-12T05:20:20.373Z,9
2023-04-12T05:25:17.415Z,11
2023-04-12T05:30:20.469Z,14
2023-04-12T05:35:17.514Z,11
2023-04-12T05:40:20.433Z,10
2023-04-12T05:45:20.298Z,10
2023-04-12T05:50:21.114Z,12
2023-04-12T05:55:18.373Z,17
2023-04-12T06:00:17.542Z,8
2023-04-12T06:05:18.385Z,16
2023-04-12T06:10:18.362Z,9
2023-04-12T06:15:21.067Z,15
2023-04-12T06:20:18.478Z,10
2023-04-12T06:25:18.420Z,13
2023-04-12T06:30:18.411Z,13
2023-04-12T06:35:15.453Z,15
2023-04-12T06:40:18.520Z,15
2023-04-12T06:45:18.351Z,14
2023-04-12T06:50:15.408Z,11
2023-04-12T06:55:18.453Z,15
2023-04-12T07:00:15.430Z,17
2023-04-12T07:05:18.427Z,12
2023-04-12T07:10:18.572Z,11
2023-04-12T07:15:18.425Z,7
2023-04-12T07:20:18.398Z,7
2023-04-12T07:25:18.408Z,11
2023-04-12T07:30:18.646Z,11
2023-04-12T07:35:18.384Z,12
2023-04-12T07:40:18.424Z,6
2023-04-12T07:45:15.455Z,12
2023-04-12T07:50:18.417Z,9
2023-04-12T07:55:15.490Z,10
2023-04-12T08:00:18.430Z,9
2023-04-12T08:05:15.555Z,11
2023-04-12T08:10:18.443Z,11
2023-04-12T08:15:15.483Z,10
2023-04-12T08:20:18.461Z,10
2023-04-12T08:25:15.436Z,7
2023-04-12T08:30:18.492Z,8
2023-04-12T08:35:15.508Z,8
2023-04-12T08:40:18.458Z,7
2023-04-12T08:45:18.496Z,8
2023-04-12T08:50:18.418Z,7
2023-04-12T08:55:18.402Z,9
2023-04-12T09:00:15.457Z,16
2023-04-12T09:05:18.499Z,7
2023-04-12T09:10:15.455Z,11
2023-04-12T09:15:18.459Z,8
2023-04-12T09:20:15.514Z,6
2023-04-12T09:25:18.521Z,9
2023-04-12T09:30:15.595Z,5
2023-04-12T09:35:18.457Z,7
2023-04-12T09:40:15.488Z,8
2023-04-12T09:45:18.485Z,5
2023-04-12T09:50:15.516Z,5
2023-04-12T09:55:18.469Z,12
2023-04-12T10:00:15.505Z,11
2023-04-12T10:05:18.687Z,11
2023-04-12T10:10:18.654Z,10
2023-04-12T10:15:18.798Z,12
2023-04-12T10:20:18.496Z,10
2023-04-12T10:25:18.480Z,8
2023-04-12T10:30:18.518Z,11
2023-04-12T10:35:15.546Z,12
2023-04-12T10:40:18.509Z,14
2023-04-12T10:45:15.555Z,13
2023-04-12T10:50:18.556Z,12
2023-04-12T10:55:18.556Z,15
2023-04-12T11:00:15.717Z,14
2023-04-12T11:05:18.813Z,14
2023-04-12T11:10:18.574Z,15
2023-04-12T11:15:18.567Z,6
2023-04-12T11:20:18.538Z,8
2023-04-12T11:25:18.534Z,15
2023-04-12T11:30:18.484Z,7
2023-04-12T11:35:18.540Z,12
2023-04-12T11:40:18.489Z,11
2023-04-12T11:45:18.070Z,13
2023-04-12T11:50:18.497Z,16
2023-04-12T11:55:18.539Z,8
2023-04-12T12:00:15.586Z,10
2023-04-12T12:05:15.739Z,23
2023-04-12T12:10:27.627Z,23
2023-04-12T12:15:18.605Z,16
2023-04-12T12:20:18.793Z,15
2023-04-12T12:25:15.543Z,13
2023-04-12T12:30:18.567Z,14
2023-04-12T12:35:15.585Z,8
2023-04-12T12:40:18.563Z,7
2023-04-12T12:45:18.549Z,25
2023-04-12T12:50:18.647Z,25
2023-04-12T12:55:18.549Z,21
2023-04-12T13:00:18.564Z,16
2023-04-12T13:05:15.726Z,16
2023-04-12T13:10:18.583Z,19
2023-04-12T13:15:23.185Z,22
2023-04-12T13:20:15.708Z,16
2023-04-12T13:25:18.859Z,12
2023-04-12T13:30:15.655Z,12
2023-04-12T13:35:18.651Z,23
2023-04-12T13:40:18.630Z,19
2023-04-12T13:45:18.606Z,20
2023-04-12T13:50:15.628Z,14
2023-04-12T13:55:15.684Z,14
2023-04-12T14:00:15.601Z,18
2023-04-12T14:05:15.461Z,10
2023-04-12T14:10:18.661Z,19
2023-04-12T14:15:18.697Z,22
2023-04-12T14:20:19.855Z,23
2023-04-12T14:25:15.671Z,17
2023-04-12T14:30:18.400Z,13
2023-04-12T14:35:18.634Z,22
2023-04-12T14:40:18.706Z,21
2023-04-12T14:45:15.654Z,14
2023-04-12T14:50:18.601Z,23
2023-04-12T14:55:18.594Z,20
2023-04-12T15:00:15.734Z,15
2023-04-12T15:05:18.730Z,23
2023-04-12T15:10:15.647Z,18
2023-04-12T15:15:18.685Z,17
2023-04-12T15:20:18.724Z,17
2023-04-12T15:25:15.642Z,22
2023-04-12T15:30:18.714Z,12
2023-04-12T15:35:26.361Z,15
2023-04-12T15:40:18.704Z,13
2023-04-12T15:45:15.737Z,15
2023-04-12T15:50:15.705Z,11
2023-04-12T15:55:15.695Z,16
2023-04-12T16:00:18.725Z,20
2023-04-12T16:05:15.712Z,14
2023-04-12T16:10:15.753Z,12
2023-04-12T16:15:18.686Z,14
2023-04-12T16:20:18.707Z,18
2023-04-12T16:25:18.720Z,22
2023-04-12T16:30:16.122Z,13
2023-04-12T16:35:18.740Z,16
2023-04-12T16:40:18.706Z,15
2023-04-12T16:45:18.740Z,15
2023-04-12T16:50:18.890Z,21
2023-04-12T16:55:18.717Z,16
2023-04-12T17:00:18.676Z,24
2023-04-12T17:05:15.788Z,16
2023-04-12T17:10:18.702Z,18
2023-04-12T17:15:18.777Z,31
2023-04-12T17:20:15.733Z,27
2023-04-12T17:25:20.704Z,22
2023-04-12T17:30:15.841Z,24
2023-04-12T17:35:18.716Z,21
2023-04-12T17:40:18.830Z,21
2023-04-12T17:45:18.738Z,19
2023-04-12T17:50:15.751Z,18
2023-04-12T17:55:18.804Z,10
2023-04-12T18:00:15.721Z,15
2023-04-12T18:05:18.754Z,18
2023-04-12T18:10:21.176Z,11
2023-04-12T18:15:18.738Z,25
2023-04-12T18:20:18.766Z,22
2023-04-12T18:25:15.724Z,18
2023-04-12T18:30:18.783Z,22
2023-04-12T18:35:18.801Z,15
2023-04-12T18:40:15.613Z,28
2023-04-12T18:45:18.729Z,17
2023-04-12T18:50:18.753Z,22
2023-04-12T18:55:18.909Z,15
2023-04-12T19:00:18.808Z,17
2023-04-12T19:05:18.742Z,23
2023-04-12T19:10:15.766Z,19
2023-04-12T19:15:15.559Z,15
2023-04-12T19:20:18.847Z,16
2023-04-12T19:25:19.809Z,17
2023-04-12T19:30:18.782Z,12
2023-04-12T19:35:18.720Z,10
2023-04-12T19:40:18.799Z,12
2023-04-12T19:45:18.780Z,14
2023-04-12T19:50:15.908Z,13
2023-04-12T19:55:15.825Z,16
2023-04-12T20:00:15.921Z,18
2023-04-12T20:05:18.757Z,13
2023-04-12T20:10:18.787Z,13
2023-04-12T20:15:18.759Z,11
2023-04-12T20:20:18.759Z,10
2023-04-12T20:25:15.769Z,12
2023-04-12T20:30:15.861Z,13
2023-04-12T20:35:15.824Z,9
2023-04-12T20:40:18.805Z,18
2023-04-12T20:45:18.774Z,18
2023-04-12T20:50:18.782Z,17
2023-04-12T20:55:18.778Z,14
2023-04-12T21:00:15.860Z,24
2023-04-12T21:05:18.868Z,20
2023-04-12T21:10:18.835Z,15
2023-04-12T21:15:18.805Z,20
2023-04-12T21:20:19.802Z,15
2023-04-12T21:25:15.905Z,11
2023-04-12T21:30:18.794Z,13
2023-04-12T21:35:15.910Z,17
2023-04-12T21:40:18.798Z,14
2023-04-12T21:45:18.901Z,13
2023-04-12T21:50:15.847Z,15
2023-04-12T21:55:15.751Z,17
2023-04-12T22:00:18.917Z,15
2023-04-12T22:05:18.839Z,10
2023-04-12T22:10:18.869Z,9
2023-04-12T22:15:15.885Z,10
2023-04-12T22:20:18.877Z,12
2023-04-12T22:25:18.813Z,9
2023-04-12T22:30:15.976Z,7
2023-04-12T22:35:15.793Z,7
2023-04-12T22:40:15.884Z,5
2023-04-12T22:45:18.922Z,6
2023-04-12T22:50:18.926Z,7
2023-04-12T22:55:18.886Z,7
2023-04-12T23:00:18.917Z,7
2023-04-12T23:05:18.869Z,7
2023-04-12T23:10:18.812Z,8
2023-04-12T23:15:15.962Z,8
2023-04-12T23:20:15.924Z,8
2023-04-12T23:25:18.931Z,7
2023-04-12T23:30:15.885Z,7
2023-04-12T23:35:18.960Z,8
2023-04-12T23:40:18.948Z,8
2023-04-12T23:45:18.828Z,8
2023-04-12T23:50:18.862Z,7
2023-04-12T23:55:18.886Z,5
